Time;durP1;ratioP1;P1;durP2;ratioP2;P2;SDS_P1;SDS_P2;PMS_P1;PMS_P2;Temp;Humidity;BMP_temperature;BMP_pressure;BME280_temperature;BME280_humidity;BME280_pressure;Samples;Min_cycle;Max_cycle;Signal;HPM_P1;HPM_P2
2022/03/29 00:01:50;;;;;;;33.47;22.63;;;;;;;;;;5073087;28;20025;-72
2022/03/29 00:04:17;;;;;;;43.97;24.77;;;;;;;;;;5074401;28;20036;-74
2022/03/29 00:06:43;;;;;;;37.30;22.90;;;333.60;1817.60;;;;;;5074362;28;20099;-72
2022/03/29 00:09:08;;;;;;;46.03;37.95;;;333.50;1843.20;;;;;;5074138;28;20111;-72
2022/03/29 00:11:34;;;;;;;29.10;19.75;;;333.50;1843.20;;;;;;5074477;28;20107;-73
2022/03/29 00:14:02;;;;;;;28.77;20.85;;;333.50;1868.80;;;;;;5074176;28;20035;-72
2022/03/29 00:16:28;;;;;;;34.90;26.38;;;333.50;1868.80;;;;;;5074127;28;20024;-72
2022/03/29 00:18:55;;;;;;;36.75;27.95;;;;;;;;;;5074222;28;20481;-72
2022/03/29 00:21:21;;;;;;;39.90;31.98;;;;;;;;;;5073892;28;20077;-72
2022/03/29 00:23:47;;;;;;;33.92;22.02;;;;;;;;;;5074110;28;20124;-73
2022/03/29 00:26:14;;;;;;;26.52;20.67;;;;;;;;;;5073856;28;20048;-71
2022/03/29 00:28:40;;;;;;;31.38;23.17;;;358.60;1766.40;;;;;;5073830;28;20068;-72
2022/03/29 00:31:10;;;;;;;24.67;17.27;;;358.50;1792.00;;;;;;5073862;28;20021;-72
2022/03/29 00:33:35;;;;;;;20.08;15.65;;;358.40;1817.60;;;;;;5073796;28;20044;-72
2022/03/29 00:36:02;;;;;;;28.88;20.05;;;;;;;;;;5073775;28;20021;-72
2022/03/29 00:38:28;;;;;;;23.80;16.92;;;;;;;;;;5073581;28;20477;-73
2022/03/29 00:40:54;;;;;;;22.25;14.60;;;;;;;;;;5073788;28;20391;-72
2022/03/29 00:43:20;;;;;;;22.35;15.18;;;333.50;1868.80;;;;;;5073611;28;20033;-70
2022/03/29 00:45:46;;;;;;;23.52;14.82;;;333.40;1868.80;;;;;;5073596;28;20028;-69
2022/03/29 00:48:13;;;;;;;21.08;14.27;;;;;;;;;;5072134;28;20033;-71
2022/03/29 00:50:40;;;;;;;21.40;13.82;;;332.90;1971.20;;;;;;5073645;28;20012;-71
2022/03/29 00:53:08;;;;;;;21.23;13.88;;;332.90;1971.20;;;;;;5073574;28;20035;-68
2022/03/29 00:55:34;;;;;;;17.80;13.40;;;;;;;;;;5073825;28;20478;-68
2022/03/29 00:58:04;;;;;;;22.02;14.35;;;;;;;;;;5073367;28;20035;-72
2022/03/29 01:00:31;;;;;;;19.95;13.45;;;;;;;;;;5073431;28;20036;-72
2022/03/29 01:02:58;;;;;;;20.27;16.20;;;;;;;;;;5073214;28;20025;-71
2022/03/29 01:05:26;;;;;;;27.30;22.45;;;;;;;;;;5073274;28;20024;-72
2022/03/29 01:07:54;;;;;;;40.50;34.28;;;;;;;;;;5073102;28;20518;-72
2022/03/29 01:10:20;;;;;;;30.02;24.40;;;;;;;;;;5072845;28;20070;-71
2022/03/29 01:12:46;;;;;;;58.30;48.03;;;;;;;;;;5073287;28;20508;-72
2022/03/29 01:15:13;;;;;;;35.00;29.92;;;;;;;;;;5073612;28;20469;-72
2022/03/29 01:17:41;;;;;;;17.55;13.73;;;333.00;1945.60;;;;;;5073032;28;20419;-72
2022/03/29 01:20:08;;;;;;;18.38;13.88;;;333.00;1945.60;;;;;;5073389;28;20477;-72
2022/03/29 01:22:35;;;;;;;26.52;14.07;;;332.90;1971.20;;;;;;5073121;28;20056;-72
2022/03/29 01:25:01;;;;;;;23.27;18.00;;;;;;;;;;5072909;28;20016;-72
2022/03/29 01:27:31;;;;;;;24.65;17.10;;;;;;;;;;5073090;28;20044;-73
2022/03/29 01:30:00;;;;;;;27.40;19.35;;;;;;;;;;5072937;28;20495;-72
2022/03/29 01:32:30;;;;;;;25.40;19.08;;;;;;;;;;5073221;28;20044;-72
2022/03/29 01:34:57;;;;;;;34.15;25.40;;;;;;;;;;5073170;28;20516;-72
2022/03/29 01:37:24;;;;;;;36.75;32.45;;;;;;;;;;5072777;28;20028;-72
2022/03/29 01:39:50;;;;;;;28.38;20.85;;;;;;;;;;5073024;28;20104;-72
2022/03/29 01:42:18;;;;;;;23.60;16.40;;;;;;;;;;5072830;28;20021;-73
2022/03/29 01:44:44;;;;;;;29.17;16.58;;;333.10;1945.60;;;;;;5072728;28;20048;-73
2022/03/29 01:47:10;;;;;;;24.88;17.17;;;333.20;1920.00;;;;;;5072735;28;20024;-72
2022/03/29 01:49:37;;;;;;;25.80;16.58;;;;;;;;;;5072690;28;20040;-72
2022/03/29 01:52:03;;;;;;;22.35;15.55;;;;;;;;;;5072747;28;20052;-72
2022/03/29 01:54:30;;;;;;;25.67;18.40;;;332.90;1971.20;;;;;;5072792;28;20028;-72
2022/03/29 01:56:56;;;;;;;27.42;18.17;;;333.10;1945.60;;;;;;5073105;28;20042;-72
2022/03/29 01:59:21;;;;;;;21.60;17.52;;;333.20;1920.00;;;;;;5072583;28;20036;-72
2022/03/29 02:01:48;;;;;;;22.52;15.60;;;333.20;1920.00;;;;;;5072546;28;20033;-73
2022/03/29 02:04:15;;;;;;;22.15;15.32;;;333.00;1945.60;;;;;;5071377;28;20082;-73
2022/03/29 02:06:41;;;;;;;24.13;15.43;;;332.80;1971.20;;;;;;5072799;28;20024;-72
2022/03/29 02:09:07;;;;;;;19.65;15.23;;;;;;;;;;5072426;28;20029;-72
2022/03/29 02:11:35;;;;;;;23.48;15.57;;;308.00;1971.20;;;;;;5072741;28;20467;-73
2022/03/29 02:14:02;;;;;;;22.40;15.77;;;332.80;2176.00;;;;;;5072677;28;20442;-72
2022/03/29 02:16:28;;;;;;;24.20;15.68;;;308.00;1996.80;;;;;;5072529;28;20028;-73
2022/03/29 02:18:53;;;;;;;22.50;15.73;;;308.00;1996.80;;;;;;5072776;28;20043;-73
2022/03/29 02:21:19;;;;;;;24.48;16.45;;;307.80;2048.00;;;;;;5074789;28;20099;-72
2022/03/29 02:23:45;;;;;;;23.38;17.42;;;307.80;2048.00;;;;;;5076405;28;20047;-73
2022/03/29 02:26:11;;;;;;;21.65;15.90;;;307.90;2252.80;;;;;;5076081;28;20056;-73
2022/03/29 02:28:37;;;;;;;22.08;15.43;;;308.00;2022.40;;;;;;5076132;28;20047;-73
2022/03/29 02:31:04;;;;;;;21.55;14.73;;;307.90;2022.40;;;;;;5076120;28;20379;-73
2022/03/29 02:33:30;;;;;;;25.27;15.15;;;307.80;2304.00;;;;;;5076176;28;20479;-73
2022/03/29 02:35:56;;;;;;;28.70;15.88;;;;;;;;;;5076283;28;20078;-73
2022/03/29 02:38:22;;;;;;;20.95;15.40;;;;;;;;;;5075937;28;20122;-73
2022/03/29 02:40:48;;;;;;;27.60;17.05;;;;;;;;;;5076086;28;20021;-73
2022/03/29 02:43:14;;;;;;;21.88;16.17;;;;;;;;;;5076009;28;20040;-73
2022/03/29 02:45:41;;;;;;;22.63;17.05;;;;;;;;;;5075886;28;20034;-73
2022/03/29 02:48:07;;;;;;;23.35;16.92;;;;;;;;;;5075905;28;20124;-73
2022/03/29 02:50:33;;;;;;;25.95;16.65;;;;;;;;;;5075896;28;20028;-73
2022/03/29 02:53:01;;;;;;;27.17;17.98;;;;;;;;;;5075671;28;20030;-73
2022/03/29 02:55:28;;;;;;;31.55;18.42;;;;;;;;;;5075719;28;20083;-73
2022/03/29 02:57:54;;;;;;;25.58;19.45;;;;;;;;;;5075572;28;20040;-73
2022/03/29 03:00:21;;;;;;;29.70;20.50;;;;;;;;;;5075629;28;20020;-73
2022/03/29 03:02:48;;;;;;;28.27;18.98;;;;;;;;;;5075804;28;20096;-73
2022/03/29 03:05:15;;;;;;;28.58;18.88;;;;;;;;;;5075691;28;20425;-73
2022/03/29 03:07:42;;;;;;;31.10;21.10;;;307.70;1971.20;;;;;;5075365;28;20056;-73
2022/03/29 03:10:09;;;;;;;27.17;20.30;;;;;;;;;;5075531;28;20115;-74
2022/03/29 03:12:39;;;;;;;27.80;21.50;;;;;;;;;;5075495;28;20035;-73
2022/03/29 03:15:06;;;;;;;25.20;20.25;;;332.90;1920.00;;;;;;5075256;28;20043;-73
2022/03/29 03:17:32;;;;;;;29.77;20.85;;;332.80;1920.00;;;;;;5075494;28;20067;-73
2022/03/29 03:19:58;;;;;;;34.63;21.20;;;308.10;1868.80;;;;;;5075319;28;20028;-73
2022/03/29 03:22:25;;;;;;;28.75;20.35;;;308.10;1894.40;;;;;;5075222;28;20036;-74
2022/03/29 03:24:51;;;;;;;26.67;20.38;;;308.10;1894.40;;;;;;5075203;28;20039;-73
2022/03/29 03:27:18;;;;;;;39.72;23.48;;;308.10;1868.80;;;;;;5074939;28;20055;-73
2022/03/29 03:29:44;;;;;;;50.75;26.23;;;332.90;1868.80;;;;;;5075059;28;20040;-73
2022/03/29 03:32:10;;;;;;;33.67;24.38;;;;;;;;;;5074345;28;20020;-73
2022/03/29 03:34:36;;;;;;;39.17;24.77;;;;;;;;;;5074995;28;20032;-73
2022/03/29 03:37:03;;;;;;;38.00;24.30;;;;;;;;;;5075173;28;20025;-73
2022/03/29 03:39:34;;;;;;;36.53;25.95;;;;;;;;;;5074712;28;20055;-72
2022/03/29 03:42:00;;;;;;;41.92;26.00;;;;;;;;;;5075030;28;20028;-74
2022/03/29 03:44:27;;;;;;;72.93;46.95;;;332.90;1868.80;;;;;;5074849;28;20028;-73
2022/03/29 03:46:52;;;;;;;49.83;33.97;;;332.90;2124.80;;;;;;5074902;28;20063;-74
2022/03/29 03:49:18;;;;;;;133.02;84.47;;;332.90;1868.80;;;;;;5074664;28;20036;-73
2022/03/29 03:51:44;;;;;;;53.92;37.28;;;333.00;1868.80;;;;;;5074742;28;20025;-71
2022/03/29 03:54:10;;;;;;;51.45;36.38;;;333.20;1843.20;;;;;;5074561;28;20521;-73
2022/03/29 03:56:35;;;;;;;74.75;47.15;;;333.10;1843.20;;;;;;5074876;28;20024;-73
2022/03/29 03:59:01;;;;;;;58.80;37.92;;;333.10;1868.80;;;;;;5074532;28;20032;-74
2022/03/29 04:01:27;;;;;;;131.05;81.38;;;333.10;1843.20;;;;;;5074422;28;20539;-73
2022/03/29 04:03:53;;;;;;;81.03;59.72;;;;;;;;;;5074613;28;20074;-72
2022/03/29 04:06:19;;;;;;;45.00;30.83;;;333.20;1843.20;;;;;;5074328;28;20363;-73
2022/03/29 04:08:46;;;;;;;49.55;30.10;;;;;;;;;;5074282;28;20051;-73
2022/03/29 04:11:12;;;;;;;40.58;29.20;;;;;;;;;;5074501;28;20013;-74
2022/03/29 04:13:37;;;;;;;54.95;31.33;;;333.50;1766.40;;;;;;5074435;28;20113;-73
2022/03/29 04:16:04;;;;;;;48.97;32.88;;;;;;;;;;5074145;28;20052;-72
2022/03/29 04:18:30;;;;;;;50.05;31.25;;;;;;;;;;5074053;28;20032;-73
2022/03/29 04:20:57;;;;;;;57.00;31.83;;;;;;;;;;5074212;28;20021;-73
2022/03/29 04:23:23;;;;;;;55.08;33.88;;;;;;;;;;5073956;28;20028;-73
2022/03/29 04:25:49;;;;;;;41.38;29.38;;;;;;;;;;5074068;28;20040;-73
2022/03/29 04:28:15;;;;;;;49.92;30.48;;;;;;;;;;5073694;28;20041;-73
2022/03/29 04:30:41;;;;;;;57.33;30.00;;;;;;;;;;5073775;28;20028;-72
2022/03/29 04:33:07;;;;;;;59.75;31.27;;;;;;;;;;5073893;28;20056;-73
2022/03/29 04:35:33;;;;;;;63.83;36.72;;;;;;;;;;5073684;28;20029;-68
2022/03/29 04:37:59;;;;;;;61.17;36.13;;;;;;;;;;5073655;28;20356;-73
2022/03/29 04:40:25;;;;;;;54.88;31.67;;;;;;;;;;5073469;28;20106;-73
2022/03/29 04:42:52;;;;;;;59.63;34.65;;;;;;;;;;5073660;28;20025;-73
2022/03/29 04:45:18;;;;;;;105.85;81.35;;;;;;;;;;5073115;28;20103;-73
2022/03/29 04:47:45;;;;;;;65.95;48.45;;;;;;;;;;5073616;28;20029;-73
2022/03/29 04:50:12;;;;;;;129.57;83.90;;;;;;;;;;5073643;28;20158;-74
2022/03/29 04:52:39;;;;;;;97.60;60.65;;;;;;;;;;5073514;28;20028;-75
2022/03/29 04:55:06;;;;;;;69.32;45.42;;;;;;;;;;5073332;28;20016;-73
2022/03/29 04:57:32;;;;;;;66.30;40.55;;;;;;;;;;5073250;28;20032;-72
2022/03/29 04:59:59;;;;;;;52.67;37.20;;;;;;;;;;5073498;28;20021;-73
2022/03/29 05:02:25;;;;;;;57.55;37.60;;;;;;;;;;5073303;28;20109;-73
2022/03/29 05:04:51;;;;;;;72.45;47.15;;;;;;;;;;5073307;28;20016;-69
2022/03/29 05:07:18;;;;;;;74.38;46.05;;;;;;;;;;5073097;28;20020;-72
2022/03/29 05:09:44;;;;;;;75.45;44.75;;;;;;;;;;5071773;28;20445;-69
2022/03/29 05:12:10;;;;;;;79.10;53.83;;;;;;;;;;5073157;28;20016;-73
2022/03/29 05:14:36;;;;;;;81.07;55.60;;;;;;;;;;5072977;28;20078;-73
2022/03/29 05:17:03;;;;;;;84.93;53.28;;;;;;;;;;5072863;28;20096;-73
2022/03/29 05:19:29;;;;;;;87.72;53.92;;;;;;;;;;5072920;28;20112;-74
2022/03/29 05:21:55;;;;;;;80.88;55.00;;;;;;;;;;5072985;28;20029;-74
2022/03/29 05:24:21;;;;;;;97.32;64.28;;;;;;;;;;5072819;28;20108;-73
2022/03/29 05:26:47;;;;;;;93.15;61.15;;;;;;;;;;5072568;28;20384;-73
2022/03/29 05:29:13;;;;;;;102.32;63.15;;;;;;;;;;5072805;28;20037;-72
2022/03/29 05:31:39;;;;;;;108.78;65.50;;;;;;;;;;5072730;28;20031;-73
2022/03/29 05:34:06;;;;;;;98.78;58.78;;;;;;;;;;5072826;28;20033;-73
2022/03/29 05:36:32;;;;;;;108.40;59.72;;;;;;;;;;5072726;28;20485;-73
2022/03/29 05:38:58;;;;;;;78.50;51.75;;;;;;;;;;5072656;28;20020;-73
2022/03/29 05:41:24;;;;;;;75.07;49.20;;;;;;;;;;5072841;28;20021;-73
2022/03/29 05:43:51;;;;;;;71.55;47.15;;;;;;;;;;5072710;28;20029;-74
2022/03/29 05:49:02;;;;;;;84.82;49.50;;;;;;;;;;5072638;28;20090;-72
2022/03/29 05:51:29;;;;;;;85.93;52.28;;;;;;;;;;5072702;28;20071;-73
2022/03/29 05:53:58;;;;;;;76.78;48.25;;;;;;;;;;5072550;28;20036;-72
2022/03/29 05:56:24;;;;;;;67.65;45.55;;;;;;;;;;5075266;28;20028;-73
2022/03/29 05:58:51;;;;;;;71.75;43.63;;;;;;;;;;5076525;28;20399;-72
2022/03/29 06:01:18;;;;;;;62.25;39.33;;;;;;;;;;5076674;28;20069;-73
2022/03/29 06:03:44;;;;;;;69.97;46.35;;;;;;;;;;5076890;28;20028;-73
2022/03/29 06:06:12;;;;;;;90.45;56.40;;;;;;;;;;5076711;28;20025;-73
2022/03/29 06:08:39;;;;;;;98.90;57.30;;;;;;;;;;5076555;28;20031;-74
2022/03/29 06:11:07;;;;;;;85.82;48.33;;;;;;;;;;5076543;28;20028;-73
2022/03/29 06:13:33;;;;;;;81.65;46.55;;;;;;;;;;5076352;28;20364;-73
2022/03/29 06:15:59;;;;;;;69.18;45.95;;;;;;;;;;5076439;28;20506;-74
2022/03/29 06:18:26;;;;;;;69.85;41.78;;;;;;;;;;5076289;28;20090;-73
2022/03/29 06:20:52;;;;;;;63.35;39.92;;;;;;;;;;5076297;28;20056;-73
2022/03/29 06:23:19;;;;;;;73.13;44.15;;;;;;;;;;5076074;28;20020;-72
2022/03/29 06:25:46;;;;;;;67.47;45.35;;;;;;;;;;5076202;28;20087;-73
2022/03/29 06:28:14;;;;;;;66.65;41.78;;;;;;;;;;5076206;28;20398;-72
2022/03/29 06:30:40;;;;;;;59.65;40.05;;;;;;;;;;5076269;28;20052;-73
2022/03/29 06:33:06;;;;;;;66.30;46.50;;;;;;;;;;5076290;28;20082;-73
2022/03/29 06:35:35;;;;;;;64.32;44.35;;;;;;;;;;5076191;28;20095;-72
2022/03/29 06:38:01;;;;;;;70.90;46.70;;;;;;;;;;5076062;28;20024;-73
2022/03/29 06:40:28;;;;;;;60.50;41.88;;;;;;;;;;5076198;28;20055;-73
2022/03/29 06:42:55;;;;;;;64.63;43.00;;;;;;;;;;5074496;28;20031;-70
2022/03/29 06:45:22;;;;;;;78.45;48.90;;;;;;;;;;5075786;28;20013;-69
2022/03/29 06:47:48;;;;;;;55.83;40.20;;;;;;;;;;5074554;28;20462;-71
2022/03/29 06:50:15;;;;;;;65.05;43.55;;;;;;;;;;5074553;28;20446;-74
2022/03/29 06:52:42;;;;;;;72.22;47.17;;;;;;;;;;5076043;28;20031;-74
2022/03/29 06:55:09;;;;;;;62.83;47.70;;;;;;;;;;5075339;28;20027;-73
2022/03/29 06:57:35;;;;;;;61.50;45.13;;;410.20;1536.00;;;;;;5075516;28;20039;-73
2022/03/29 07:00:01;;;;;;;65.55;48.72;;;410.30;1510.40;;;;;;5075819;28;20017;-73
2022/03/29 07:02:28;;;;;;;71.65;48.92;;;;;;;;;;5075741;28;20024;-73
2022/03/29 07:04:55;;;;;;;67.13;47.25;;;;;;;;;;5075584;28;20463;-73
2022/03/29 07:07:21;;;;;;;74.30;48.75;;;;;;;;;;5072826;28;20028;-72
2022/03/29 07:12:34;;;;;;;71.90;50.30;;;;;;;;;;5075237;28;20031;-72
2022/03/29 07:15:00;;;;;;;74.70;50.00;;;;;;;;;;5075168;28;20017;-73
2022/03/29 07:17:26;;;;;;;67.28;49.45;;;;;;;;;;5075392;28;20016;-73
2022/03/29 07:19:53;;;;;;;72.57;52.00;;;;;;;;;;5075162;28;20086;-72
2022/03/29 07:22:19;;;;;;;66.90;50.45;;;;;;;;;;5075372;28;20059;-73
2022/03/29 07:24:45;;;;;;;75.45;49.15;;;;;;;;;;5074973;28;20043;-72
2022/03/29 07:27:11;;;;;;;73.07;51.35;;;;;;;;;;5074550;28;20048;-72
2022/03/29 07:29:39;;;;;;;62.58;46.95;;;;;;;;;;5074824;28;20028;-72
2022/03/29 07:32:05;;;;;;;65.72;47.15;;;;;;;;;;5074946;28;20024;-72
2022/03/29 07:34:35;;;;;;;58.45;41.67;;;;;;;;;;5074838;28;20032;-72
2022/03/29 07:37:02;;;;;;;62.75;40.60;;;;;;;;;;5074911;28;20039;-72
2022/03/29 07:39:28;;;;;;;58.65;41.90;;;;;;;;;;5075123;28;20401;-73
2022/03/29 07:41:55;;;;;;;66.53;44.72;;;;;;;;;;5075088;28;20104;-73
2022/03/29 07:44:21;;;;;;;65.78;45.33;;;;;;;;;;5074768;28;20103;-71
2022/03/29 07:46:48;;;;;;;62.92;46.50;;;;;;;;;;5074895;28;20032;-67
2022/03/29 07:49:14;;;;;;;67.55;45.28;;;;;;;;;;5074496;28;20376;-70
2022/03/29 07:51:40;;;;;;;54.65;39.83;;;;;;;;;;5074384;28;20052;-72
2022/03/29 07:54:06;;;;;;;51.70;38.55;;;;;;;;;;5074527;28;20024;-73
2022/03/29 07:56:32;;;;;;;55.88;39.15;;;;;;;;;;5074507;28;20517;-72
2022/03/29 07:58:59;;;;;;;49.92;39.97;;;;;;;;;;5074400;28;20467;-74
2022/03/29 08:01:25;;;;;;;53.83;41.05;;;;;;;;;;5074379;28;20108;-72
2022/03/29 08:03:51;;;;;;;61.13;44.13;;;;;;;;;;5074431;28;20028;-72
2022/03/29 08:06:17;;;;;;;75.22;48.47;;;;;;;;;;5074303;28;20162;-73
2022/03/29 08:08:43;;;;;;;58.38;43.72;;;;;;;;;;5074227;28;20066;-69
2022/03/29 08:11:10;;;;;;;58.85;42.80;;;;;;;;;;5074446;28;20020;-72
2022/03/29 08:13:36;;;;;;;65.22;43.47;;;512.80;1152.00;;;;;;5073042;28;20059;-73
2022/03/29 08:16:02;;;;;;;65.43;45.40;;;;;;;;;;5074338;28;20017;-72
2022/03/29 08:18:31;;;;;;;51.78;39.53;;;;;;;;;;5073833;28;20118;-72
2022/03/29 08:20:57;;;;;;;46.78;37.22;;;;;;;;;;5074041;28;20025;-73
2022/03/29 08:23:25;;;;;;;49.10;37.78;;;;;;;;;;5074002;28;20028;-72
2022/03/29 08:25:51;;;;;;;46.33;35.20;;;;;;;;;;5073540;28;20075;-73
2022/03/29 08:28:19;;;;;;;49.20;36.90;;;;;;;;;;5073820;28;20403;-72
2022/03/29 08:30:45;;;;;;;55.13;33.47;;;;;;;;;;5073775;28;20035;-70
2022/03/29 08:33:12;;;;;;;41.13;26.67;;;;;;;;;;5073713;28;20482;-72
2022/03/29 08:35:38;;;;;;;35.28;24.45;;;;;;;;;;5073641;28;20034;-72
2022/03/29 08:38:05;;;;;;;41.00;22.67;;;;;;;;;;5073542;28;20103;-71
2022/03/29 08:40:30;;;;;;;32.53;22.85;;;589.00;870.40;;;;;;5073403;28;20025;-72
2022/03/29 08:42:58;;;;;;;39.83;23.25;;;589.00;870.40;;;;;;5073505;28;20039;-73
2022/03/29 08:45:29;;;;;;;33.15;22.38;;;;;;;;;;5073433;28;20024;-73
2022/03/29 08:47:56;;;;;;;31.23;22.05;;;;;;;;;;5073453;28;20037;-71
2022/03/29 08:50:23;;;;;;;36.95;25.15;;;;;;;;;;5073504;28;20025;-71
2022/03/29 08:52:51;;;;;;;39.55;24.23;;;;;;;;;;5073315;28;20074;-73
2022/03/29 08:55:17;;;;;;;34.53;23.98;;;;;;;;;;5073147;28;20439;-72
2022/03/29 08:57:43;;;;;;;31.55;25.30;;;;;;;;;;5073467;28;20056;-72
2022/03/29 09:00:10;;;;;;;37.88;26.30;;;;;;;;;;5073356;28;20035;-72
2022/03/29 09:02:37;;;;;;;28.20;22.45;;;;;;;;;;5073516;28;20025;-74
2022/03/29 09:05:13;;;;;;;39.65;26.30;;;;;;;;;;5073321;28;20023;-73
2022/03/29 09:07:54;;;;;;;32.00;25.65;;;;;;;;;;5073072;28;20386;-73
2022/03/29 09:10:22;;;;;;;37.97;29.00;;;615.20;793.60;;;;;;5072937;28;20551;-72
2022/03/29 09:12:49;;;;;;;32.40;24.92;;;;;;;;;;5072909;28;20052;-73
2022/03/29 09:15:15;;;;;;;44.47;35.35;;;;;;;;;;5073037;28;20024;-71
2022/03/29 09:17:42;;;;;;;27.15;24.00;;;;;;;;;;5073248;28;20383;-72
2022/03/29 09:20:22;;;;;;;29.05;23.88;;;;;;;;;;5072846;28;20085;-72
2022/03/29 09:22:52;;;;;;;34.30;26.23;;;;;;;;;;5073371;28;20020;-72
2022/03/29 09:25:22;;;;;;;35.65;22.65;;;;;;;;;;5072775;28;20021;-73
2022/03/29 09:27:51;;;;;;;36.42;27.77;;;;;;;;;;5072831;28;20102;-73
2022/03/29 09:30:17;;;;;;;33.53;25.63;;;;;;;;;;5072424;28;20024;-73
2022/03/29 09:32:53;;;;;;;33.03;23.40;;;;;;;;;;5072781;28;20028;-73
2022/03/29 09:35:19;;;;;;;34.72;24.40;;;666.00;768.00;;;;;;5072666;28;20487;-70
2022/03/29 09:37:45;;;;;;;31.23;24.75;;;;;;;;;;5072881;28;20088;-72
2022/03/29 09:40:14;;;;;;;28.10;24.23;;;;;;;;;;5072446;28;20020;-74
2022/03/29 09:42:43;;;;;;;31.15;25.55;;;;;;;;;;5072647;28;20028;-73
2022/03/29 09:45:09;;;;;;;33.50;27.23;;;;;;;;;;5072715;28;20103;-74
2022/03/29 09:47:37;;;;;;;36.33;26.02;;;;;;;;;;5072954;28;20394;-72
2022/03/29 09:50:06;;;;;;;30.08;24.73;;;;;;;;;;5072362;28;20039;-73
2022/03/29 09:52:44;;;;;;;32.25;27.92;;;;;;;;;;5072471;28;20494;-74
2022/03/29 09:55:15;;;;;;;31.23;24.42;;;;;;;;;;5072443;28;20105;-72
2022/03/29 09:57:42;;;;;;;35.17;24.88;;;;;;;;;;5072559;28;20029;-72
2022/03/29 10:00:10;;;;;;;31.45;24.58;;;;;;;;;;5071307;28;20016;-70
2022/03/29 10:02:38;;;;;;;27.63;24.48;;;;;;;;;;5072359;28;20043;-73
2022/03/29 10:05:04;;;;;;;30.50;23.05;;;973.30;512.00;;;;;;5072667;28;20024;-74
2022/03/29 10:07:33;;;;;;;29.02;23.38;;;;;;;;;;5072296;28;20059;-73
2022/03/29 10:09:59;;;;;;;26.92;23.05;;;;;;;;;;5072231;28;20425;-74
2022/03/29 10:12:25;;;;;;;27.15;23.05;;;;;;;;;;5072538;28;20390;-73
2022/03/29 10:14:54;;;;;;;27.35;24.48;;;1024.40;460.80;;;;;;5072365;28;20021;-73
2022/03/29 10:17:22;;;;;;;29.23;23.35;;;1024.90;460.80;;;;;;5072162;28;20029;-73
2022/03/29 10:19:49;;;;;;;26.15;23.52;;;1024.40;460.80;;;;;;5072329;28;20013;-74
2022/03/29 10:22:15;;;;;;;28.45;22.67;;;;;;;;;;5072336;28;20138;-73
2022/03/29 10:24:42;;;;;;;26.67;23.88;;;;;;;;;;5072504;28;20021;-74
2022/03/29 10:27:09;;;;;;;29.70;26.70;;;1050.20;460.80;;;;;;5072108;28;20037;-74
2022/03/29 10:29:35;;;;;;;42.97;25.30;;;;;;;;;;5072474;28;20157;-73
2022/03/29 10:32:05;;;;;;;34.78;26.73;;;;;;;;;;5072119;28;20021;-72
2022/03/29 10:34:32;;;;;;;36.08;22.52;;;;;;;;;;5072142;28;20027;-74
2022/03/29 10:37:01;;;;;;;33.72;23.77;;;;;;;;;;5072338;28;20382;-74
2022/03/29 10:39:53;;;;;;;27.33;23.58;;;;;;;;;;5071975;28;20462;-75
2022/03/29 10:42:27;;;;;;;28.50;25.15;;;;;;;;;;5070715;28;20037;-73
2022/03/29 10:45:09;;;;;;;27.17;24.30;;;;;;;;;;5076012;28;20479;-75
2022/03/29 10:47:35;;;;;;;27.77;24.73;;;;;;;;;;5075876;28;20032;-74
2022/03/29 10:50:01;;;;;;;27.23;23.50;;;;;;;;;;5075611;28;20025;-74
2022/03/29 10:52:30;;;;;;;31.10;24.00;;;1101.20;435.20;;;;;;5075699;28;20475;-74
2022/03/29 10:55:13;;;;;;;34.38;26.20;;;1101.00;435.20;;;;;;5075495;28;20036;-73
2022/03/29 10:57:40;;;;;;;26.80;24.08;;;;;;;;;;5075670;28;20059;-74
2022/03/29 11:00:10;;;;;;;26.25;23.40;;;;;;;;;;5075700;28;20028;-74
2022/03/29 11:02:37;;;;;;;25.70;22.60;;;1101.20;435.20;;;;;;5075595;28;20024;-74
2022/03/29 11:05:13;;;;;;;25.75;23.05;;;1101.30;435.20;;;;;;5075460;28;20021;-74
2022/03/29 11:07:40;;;;;;;34.00;24.58;;;;;;;;;;5075430;28;20490;-73
2022/03/29 11:10:11;;;;;;;29.67;23.70;;;1101.40;435.20;;;;;;5075361;28;20039;-74
2022/03/29 11:12:46;;;;;;;26.10;23.25;;;1101.50;435.20;;;;;;5075572;28;20017;-73
2022/03/29 11:15:35;;;;;;;30.20;24.95;;;;;;;;;;5075298;28;20025;-75
2022/03/29 11:18:04;;;;;;;32.55;25.13;;;;;;;;;;5075864;28;20029;-73
2022/03/29 11:20:34;;;;;;;30.40;24.02;;;;;;;;;;5075301;28;20021;-69
2022/03/29 11:23:00;;;;;;;;;;;;;;;;;;5075981;28;20025;-69
2022/03/29 11:25:26;;;;;;;28.95;24.77;;;;;;;;;;5074673;28;19912;-74
2022/03/29 11:27:52;;;;;;;28.65;24.42;;;;;;;;;;5074908;28;20479;-69
2022/03/29 11:30:19;;;;;;;27.45;24.65;;;;;;;;;;5075131;28;20028;-73
2022/03/29 11:32:46;;;;;;;32.45;25.85;;;;;;;;;;5074670;28;20075;-73
2022/03/29 11:35:15;;;;;;;27.05;24.23;;;;;;;;;;5074966;28;20032;-74
2022/03/29 11:37:44;;;;;;;27.20;24.50;;;;;;;;;;5074687;28;20138;-74
2022/03/29 11:40:15;;;;;;;28.15;24.17;;;;;;;;;;5073422;28;20024;-73
2022/03/29 11:42:41;;;;;;;;;;;;;;;;;;5075185;28;20081;-70
2022/03/29 11:45:07;;;;;;;48.35;28.15;;;1075.60;460.80;;;;;;5074861;28;20309;-74
2022/03/29 11:47:33;;;;;;;37.58;27.83;;;;;;;;;;5074514;28;20467;-74
2022/03/29 11:49:59;;;;;;;30.88;25.42;;;;;;;;;;5074667;28;20504;-74
2022/03/29 11:52:33;;;;;;;40.47;26.45;;;1024.90;486.40;;;;;;5074534;28;20360;-70
2022/03/29 11:54:59;;;;;;;28.60;24.67;;;1024.40;486.40;;;;;;5073990;28;20032;-74
2022/03/29 11:57:25;;;;;;;28.27;25.25;;;;;;;;;;5074427;28;20028;-73
2022/03/29 11:59:52;;;;;;;27.88;24.92;;;;;;;;;;5074313;28;20033;-74
2022/03/29 12:02:22;;;;;;;29.15;25.88;;;998.80;486.40;;;;;;5074285;28;20420;-74
2022/03/29 12:04:51;;;;;;;29.58;24.52;;;998.80;486.40;;;;;;5074432;28;20027;-74
2022/03/29 12:07:32;;;;;;;28.27;25.25;;;998.80;512.00;;;;;;5074306;28;20059;-74
2022/03/29 12:09:58;;;;;;;33.90;25.33;;;;;;;;;;5072887;28;20033;-74
2022/03/29 12:12:24;;;;;;;30.00;23.90;;;998.70;486.40;;;;;;5074183;28;20199;-73
2022/03/29 12:15:06;;;;;;;28.63;24.85;;;998.50;512.00;;;;;;5073969;28;20590;-73
2022/03/29 12:17:34;;;;;;;34.05;27.80;;;998.40;512.00;;;;;;5074164;28;20035;-73
2022/03/29 12:20:00;;;;;;;28.00;25.00;;;998.50;512.00;;;;;;5074086;28;20505;-73
2022/03/29 12:22:29;;;;;;;31.90;26.23;;;;;;;;;;5074009;28;20036;-73
2022/03/29 12:24:57;;;;;;;32.22;23.60;;;;;;;;;;5074029;28;20484;-73
2022/03/29 12:27:23;;;;;;;27.73;24.30;;;998.50;512.00;;;;;;5073452;28;20040;-74
2022/03/29 12:29:58;;;;;;;29.27;26.05;;;998.40;512.00;;;;;;5073908;28;20036;-75
2022/03/29 12:32:24;;;;;;;29.67;26.42;;;998.40;512.00;;;;;;5074035;28;20421;-75
2022/03/29 12:34:55;;;;;;;27.27;24.02;;;;;;;;;;5073904;28;20024;-74
2022/03/29 12:37:22;;;;;;;25.75;23.15;;;973.60;486.40;;;;;;5073708;28;20029;-74
2022/03/29 12:39:52;;;;;;;30.45;25.50;;;;;;;;;;5073501;28;20382;-74
2022/03/29 12:42:19;;;;;;;29.70;26.70;;;;;;;;;;5073480;28;20020;-74
2022/03/29 12:44:47;;;;;;;30.38;23.98;;;;;;;;;;5073404;28;20344;-74
2022/03/29 12:47:15;;;;;;;35.13;26.73;;;;;;;;;;5073604;28;20100;-75
2022/03/29 12:49:41;;;;;;;31.38;25.45;;;;;;;;;;5073368;28;20033;-74
2022/03/29 12:52:10;;;;;;;27.20;24.35;;;922.50;512.00;;;;;;5073622;28;20078;-75
2022/03/29 12:54:37;;;;;;;29.10;25.90;;;;;;;;;;5074032;28;20054;-69
2022/03/29 12:57:07;;;;;;;32.83;25.77;;;;;;;;;;5073608;28;20157;-68
2022/03/29 12:59:40;;;;;;;31.30;26.35;;;;;;;;;;5073490;28;20036;-67
2022/03/29 13:02:19;;;;;;;29.75;25.15;;;819.70;588.80;;;;;;5073437;28;20040;-67
2022/03/29 13:04:45;;;;;;;33.30;25.88;;;;;;;;;;5072707;28;20102;-66
2022/03/29 13:07:11;;;;;;;32.35;27.38;;;;;;;;;;5073174;28;20036;-67
2022/03/29 13:09:38;;;;;;;41.22;26.48;;;;;;;;;;5072926;28;20089;-74
2022/03/29 13:12:12;;;;;;;36.30;29.15;;;;;;;;;;5073027;28;20021;-75
2022/03/29 13:14:39;;;;;;;36.63;28.17;;;;;;;;;;5073096;28;20476;-73
2022/03/29 13:17:05;;;;;;;35.95;27.52;;;;;;;;;;5073325;28;20024;-71
2022/03/29 13:19:31;;;;;;;33.95;27.40;;;;;;;;;;5072990;28;20494;-75
2022/03/29 13:22:05;;;;;;;33.40;28.02;;;;;;;;;;5073433;28;20016;-72
2022/03/29 13:24:36;;;;;;;33.40;26.48;;;;;;;;;;5073052;28;20502;-74
2022/03/29 13:27:02;;;;;;;;;;;;;;;;;;5073029;28;20410;-73
2022/03/29 13:29:28;;;;;;;30.23;25.40;;;;;;;;;;5072798;28;19916;-75
2022/03/29 13:31:54;;;;;;;27.70;24.80;;;;;;;;;;5072723;28;20025;-74
2022/03/29 13:34:21;;;;;;;31.13;25.90;;;743.30;640.00;;;;;;5072921;28;20032;-74
2022/03/29 13:36:47;;;;;;;31.85;25.35;;;;;;;;;;5072681;28;20799;-74
2022/03/29 13:39:15;;;;;;;29.08;25.90;;;;;;;;;;5072617;28;20128;-74
2022/03/29 13:41:41;;;;;;;33.42;26.98;;;;;;;;;;5071309;28;20020;-73
2022/03/29 13:44:07;;;;;;;30.58;26.40;;;;;;;;;;5072697;28;20028;-73
2022/03/29 13:46:34;;;;;;;33.30;27.60;;;;;;;;;;5072604;28;20024;-75